sensor_id;sensor_type;location;lat;lon;timestamp;temperature;humidity
11894;DHT22;6006;49.696;8.662;2023-11-19T00:01:42;8.30;99.90
11894;DHT22;6006;49.696;8.662;2023-11-19T00:04:11;8.30;99.90
11894;DHT22;6006;49.696;8.662;2023-11-19T00:06:38;8.30;99.90
11894;DHT22;6006;49.696;8.662;2023-11-19T00:09:05;8.40;99.90
11894;DHT22;6006;49.696;8.662;2023-11-19T00:11:33;8.30;99.90
11894;DHT22;6006;49.696;8.662;2023-11-19T00:14:00;8.40;99.90
11894;DHT22;6006;49.696;8.662;2023-11-19T00:16:27;8.40;99.90
11894;DHT22;6006;49.696;8.662;2023-11-19T00:18:55;8.40;99.90
11894;DHT22;6006;49.696;8.662;2023-11-19T00:21:23;8.40;99.90
11894;DHT22;6006;49.696;8.662;2023-11-19T00:23:54;8.40;99.90
11894;DHT22;6006;49.696;8.662;2023-11-19T00:26:21;8.50;99.90
11894;DHT22;6006;49.696;8.662;2023-11-19T00:28:48;8.40;99.90
11894;DHT22;6006;49.696;8.662;2023-11-19T00:31:14;8.40;99.90
11894;DHT22;6006;49.696;8.662;2023-11-19T00:33:42;8.50;99.90
11894;DHT22;6006;49.696;8.662;2023-11-19T00:36:09;8.50;99.90
11894;DHT22;6006;49.696;8.662;2023-11-19T00:38:40;8.50;99.90
11894;DHT22;6006;49.696;8.662;2023-11-19T00:41:06;8.50;99.90
11894;DHT22;6006;49.696;8.662;2023-11-19T00:43:33;8.60;99.90
11894;DHT22;6006;49.696;8.662;2023-11-19T00:46:01;8.60;99.90
11894;DHT22;6006;49.696;8.662;2023-11-19T00:48:35;8.60;99.90
11894;DHT22;6006;49.696;8.662;2023-11-19T00:51:02;8.60;99.90
11894;DHT22;6006;49.696;8.662;2023-11-19T00:53:30;8.60;99.90
11894;DHT22;6006;49.696;8.662;2023-11-19T00:55:59;8.60;99.90
11894;DHT22;6006;49.696;8.662;2023-11-19T00:58:26;8.60;99.90
11894;DHT22;6006;49.696;8.662;2023-11-19T01:00:52;8.60;99.90
11894;DHT22;6006;49.696;8.662;2023-11-19T01:03:19;8.60;99.90
11894;DHT22;6006;49.696;8.662;2023-11-19T01:05:46;8.60;99.90
11894;DHT22;6006;49.696;8.662;2023-11-19T01:08:13;8.60;99.90
11894;DHT22;6006;49.696;8.662;2023-11-19T01:10:41;8.60;99.90
11894;DHT22;6006;49.696;8.662;2023-11-19T01:13:09;8.70;99.90
11894;DHT22;6006;49.696;8.662;2023-11-19T01:15:36;8.60;99.90
11894;DHT22;6006;49.696;8.662;2023-11-19T01:18:03;8.70;99.90
11894;DHT22;6006;49.696;8.662;2023-11-19T01:20:31;8.70;99.90
11894;DHT22;6006;49.696;8.662;2023-11-19T01:22:59;8.70;99.90
11894;DHT22;6006;49.696;8.662;2023-11-19T01:25:26;8.70;99.90
11894;DHT22;6006;49.696;8.662;2023-11-19T01:27:53;8.70;99.90
11894;DHT22;6006;49.696;8.662;2023-11-19T01:30:22;8.70;99.90
11894;DHT22;6006;49.696;8.662;2023-11-19T01:32:49;8.70;99.90
11894;DHT22;6006;49.696;8.662;2023-11-19T01:35:15;8.80;99.90
11894;DHT22;6006;49.696;8.662;2023-11-19T01:37:42;8.80;99.90
11894;DHT22;6006;49.696;8.662;2023-11-19T01:40:10;8.70;99.90
11894;DHT22;6006;49.696;8.662;2023-11-19T01:42:38;8.80;99.90
11894;DHT22;6006;49.696;8.662;2023-11-19T01:45:05;8.80;99.90
11894;DHT22;6006;49.696;8.662;2023-11-19T01:47:35;8.80;99.90
11894;DHT22;6006;49.696;8.662;2023-11-19T01:50:03;8.80;99.90
11894;DHT22;6006;49.696;8.662;2023-11-19T01:52:34;8.90;99.90
11894;DHT22;6006;49.696;8.662;2023-11-19T01:55:04;8.90;99.90
11894;DHT22;6006;49.696;8.662;2023-11-19T01:57:31;8.90;99.90
11894;DHT22;6006;49.696;8.662;2023-11-19T01:59:58;9.00;99.90
11894;DHT22;6006;49.696;8.662;2023-11-19T02:02:25;8.90;99.90
11894;DHT22;6006;49.696;8.662;2023-11-19T02:04:53;8.90;99.90
11894;DHT22;6006;49.696;8.662;2023-11-19T02:07:20;9.00;99.90
11894;DHT22;6006;49.696;8.662;2023-11-19T02:09:47;9.00;99.90
11894;DHT22;6006;49.696;8.662;2023-11-19T02:12:14;9.00;99.90
11894;DHT22;6006;49.696;8.662;2023-11-19T02:14:41;9.00;99.90
11894;DHT22;6006;49.696;8.662;2023-11-19T02:17:25;9.00;99.90
11894;DHT22;6006;49.696;8.662;2023-11-19T02:19:53;9.10;99.90
11894;DHT22;6006;49.696;8.662;2023-11-19T02:22:20;9.10;99.90
11894;DHT22;6006;49.696;8.662;2023-11-19T02:24:48;9.10;99.90
11894;DHT22;6006;49.696;8.662;2023-11-19T02:27:20;9.20;99.90
11894;DHT22;6006;49.696;8.662;2023-11-19T02:29:54;9.10;99.90
11894;DHT22;6006;49.696;8.662;2023-11-19T02:32:20;9.20;99.90
11894;DHT22;6006;49.696;8.662;2023-11-19T02:34:47;9.20;99.90
11894;DHT22;6006;49.696;8.662;2023-11-19T02:37:14;9.20;99.90
11894;DHT22;6006;49.696;8.662;2023-11-19T02:39:41;9.20;99.90
11894;DHT22;6006;49.696;8.662;2023-11-19T02:42:08;9.30;99.90
11894;DHT22;6006;49.696;8.662;2023-11-19T02:44:35;9.30;99.90
11894;DHT22;6006;49.696;8.662;2023-11-19T02:47:05;9.30;99.90
11894;DHT22;6006;49.696;8.662;2023-11-19T02:49:33;9.40;99.90
11894;DHT22;6006;49.696;8.662;2023-11-19T02:52:00;9.30;99.90
11894;DHT22;6006;49.696;8.662;2023-11-19T02:54:27;9.40;99.90
11894;DHT22;6006;49.696;8.662;2023-11-19T02:56:54;9.40;99.90
11894;DHT22;6006;49.696;8.662;2023-11-19T02:59:25;9.40;99.90
11894;DHT22;6006;49.696;8.662;2023-11-19T03:02:05;9.40;99.90
11894;DHT22;6006;49.696;8.662;2023-11-19T03:04:33;9.40;99.90
11894;DHT22;6006;49.696;8.662;2023-11-19T03:07:00;9.40;99.90
11894;DHT22;6006;49.696;8.662;2023-11-19T03:09:27;9.50;99.90
11894;DHT22;6006;49.696;8.662;2023-11-19T03:11:55;9.50;99.90
11894;DHT22;6006;49.696;8.662;2023-11-19T03:14:21;9.50;99.90
11894;DHT22;6006;49.696;8.662;2023-11-19T03:16:49;9.50;99.90
11894;DHT22;6006;49.696;8.662;2023-11-19T03:19:17;9.50;99.90
11894;DHT22;6006;49.696;8.662;2023-11-19T03:21:44;9.50;99.90
11894;DHT22;6006;49.696;8.662;2023-11-19T03:24:13;9.50;99.90
11894;DHT22;6006;49.696;8.662;2023-11-19T03:26:40;9.60;99.90
11894;DHT22;6006;49.696;8.662;2023-11-19T03:29:08;9.50;99.90
11894;DHT22;6006;49.696;8.662;2023-11-19T03:31:35;9.50;99.90
11894;DHT22;6006;49.696;8.662;2023-11-19T03:34:02;9.50;99.90
11894;DHT22;6006;49.696;8.662;2023-11-19T03:36:33;9.50;99.90
11894;DHT22;6006;49.696;8.662;2023-11-19T03:39:00;9.50;99.90
11894;DHT22;6006;49.696;8.662;2023-11-19T03:41:28;9.50;99.90
11894;DHT22;6006;49.696;8.662;2023-11-19T03:43:56;9.50;99.90
11894;DHT22;6006;49.696;8.662;2023-11-19T03:46:22;9.50;99.90
11894;DHT22;6006;49.696;8.662;2023-11-19T03:49:00;9.60;99.90
11894;DHT22;6006;49.696;8.662;2023-11-19T03:51:27;9.60;99.90
11894;DHT22;6006;49.696;8.662;2023-11-19T03:53:55;9.60;99.90
11894;DHT22;6006;49.696;8.662;2023-11-19T03:56:22;9.60;99.90
11894;DHT22;6006;49.696;8.662;2023-11-19T03:58:49;9.70;99.90
11894;DHT22;6006;49.696;8.662;2023-11-19T04:01:16;9.60;99.90
11894;DHT22;6006;49.696;8.662;2023-11-19T04:03:42;9.60;99.90
11894;DHT22;6006;49.696;8.662;2023-11-19T04:06:09;9.70;99.90
11894;DHT22;6006;49.696;8.662;2023-11-19T04:08:36;9.70;99.90
11894;DHT22;6006;49.696;8.662;2023-11-19T04:11:12;9.70;99.90
11894;DHT22;6006;49.696;8.662;2023-11-19T04:13:38;9.60;99.90
11894;DHT22;6006;49.696;8.662;2023-11-19T04:16:06;9.70;99.90
11894;DHT22;6006;49.696;8.662;2023-11-19T04:18:33;9.70;99.90
11894;DHT22;6006;49.696;8.662;2023-11-19T04:21:00;9.80;99.90
11894;DHT22;6006;49.696;8.662;2023-11-19T04:23:26;9.80;99.90
11894;DHT22;6006;49.696;8.662;2023-11-19T04:25:53;9.80;99.90
11894;DHT22;6006;49.696;8.662;2023-11-19T04:28:23;9.80;99.90
11894;DHT22;6006;49.696;8.662;2023-11-19T04:30:52;9.80;99.90
11894;DHT22;6006;49.696;8.662;2023-11-19T04:33:19;9.80;99.90
11894;DHT22;6006;49.696;8.662;2023-11-19T04:35:46;9.80;99.90
11894;DHT22;6006;49.696;8.662;2023-11-19T04:38:13;9.80;99.90
11894;DHT22;6006;49.696;8.662;2023-11-19T04:40:40;9.90;99.90
11894;DHT22;6006;49.696;8.662;2023-11-19T04:43:07;9.90;99.90
11894;DHT22;6006;49.696;8.662;2023-11-19T04:45:35;9.90;99.90
11894;DHT22;6006;49.696;8.662;2023-11-19T04:48:02;9.90;99.90
11894;DHT22;6006;49.696;8.662;2023-11-19T04:50:29;9.90;99.90
11894;DHT22;6006;49.696;8.662;2023-11-19T04:52:56;10.00;99.90
11894;DHT22;6006;49.696;8.662;2023-11-19T04:55:23;10.00;99.90
11894;DHT22;6006;49.696;8.662;2023-11-19T04:57:49;10.00;99.90
11894;DHT22;6006;49.696;8.662;2023-11-19T05:00:16;10.00;99.90
11894;DHT22;6006;49.696;8.662;2023-11-19T05:02:45;10.10;99.90
11894;DHT22;6006;49.696;8.662;2023-11-19T05:05:11;10.10;99.90
11894;DHT22;6006;49.696;8.662;2023-11-19T05:07:38;10.10;99.90
11894;DHT22;6006;49.696;8.662;2023-11-19T05:10:06;10.10;99.90
11894;DHT22;6006;49.696;8.662;2023-11-19T05:12:34;10.10;99.90
11894;DHT22;6006;49.696;8.662;2023-11-19T05:15:01;10.10;99.90
11894;DHT22;6006;49.696;8.662;2023-11-19T05:17:27;10.10;99.90
11894;DHT22;6006;49.696;8.662;2023-11-19T05:19:56;10.20;99.90
11894;DHT22;6006;49.696;8.662;2023-11-19T05:22:23;10.10;99.90
11894;DHT22;6006;49.696;8.662;2023-11-19T05:24:49;10.10;99.90
11894;DHT22;6006;49.696;8.662;2023-11-19T05:27:16;10.10;99.90
11894;DHT22;6006;49.696;8.662;2023-11-19T05:29:43;10.20;99.90
11894;DHT22;6006;49.696;8.662;2023-11-19T05:32:10;10.20;99.90
11894;DHT22;6006;49.696;8.662;2023-11-19T05:34:37;10.20;99.90
11894;DHT22;6006;49.696;8.662;2023-11-19T05:37:22;10.20;99.90
11894;DHT22;6006;49.696;8.662;2023-11-19T05:39:50;10.20;99.90
11894;DHT22;6006;49.696;8.662;2023-11-19T05:42:17;10.20;99.90
11894;DHT22;6006;49.696;8.662;2023-11-19T05:44:44;10.30;99.90
11894;DHT22;6006;49.696;8.662;2023-11-19T05:47:11;10.30;99.90
11894;DHT22;6006;49.696;8.662;2023-11-19T05:49:39;10.30;99.90
11894;DHT22;6006;49.696;8.662;2023-11-19T05:52:06;10.30;99.90
11894;DHT22;6006;49.696;8.662;2023-11-19T05:54:36;10.30;99.90
11894;DHT22;6006;49.696;8.662;2023-11-19T05:57:04;10.30;99.90
11894;DHT22;6006;49.696;8.662;2023-11-19T05:59:32;10.30;99.90
11894;DHT22;6006;49.696;8.662;2023-11-19T06:01:58;10.40;99.90
11894;DHT22;6006;49.696;8.662;2023-11-19T06:04:26;10.40;99.90
11894;DHT22;6006;49.696;8.662;2023-11-19T06:06:53;10.50;99.90
11894;DHT22;6006;49.696;8.662;2023-11-19T06:09:20;10.50;99.90
11894;DHT22;6006;49.696;8.662;2023-11-19T06:11:50;10.60;99.90
11894;DHT22;6006;49.696;8.662;2023-11-19T06:14:18;10.60;99.90
11894;DHT22;6006;49.696;8.662;2023-11-19T06:16:45;10.60;99.90
11894;DHT22;6006;49.696;8.662;2023-11-19T06:19:11;10.60;99.90
11894;DHT22;6006;49.696;8.662;2023-11-19T06:21:38;10.70;99.90
11894;DHT22;6006;49.696;8.662;2023-11-19T06:24:06;10.70;99.90
11894;DHT22;6006;49.696;8.662;2023-11-19T06:26:34;10.70;99.90
11894;DHT22;6006;49.696;8.662;2023-11-19T06:29:02;10.70;99.90
11894;DHT22;6006;49.696;8.662;2023-11-19T06:31:29;10.70;99.90
11894;DHT22;6006;49.696;8.662;2023-11-19T06:33:56;10.70;99.90
11894;DHT22;6006;49.696;8.662;2023-11-19T06:36:23;10.70;99.90
11894;DHT22;6006;49.696;8.662;2023-11-19T06:38:52;10.70;99.90
11894;DHT22;6006;49.696;8.662;2023-11-19T06:41:19;10.80;99.90
11894;DHT22;6006;49.696;8.662;2023-11-19T06:43:46;10.70;99.90
11894;DHT22;6006;49.696;8.662;2023-11-19T06:46:17;10.80;99.90
11894;DHT22;6006;49.696;8.662;2023-11-19T06:48:46;10.80;99.90
11894;DHT22;6006;49.696;8.662;2023-11-19T06:51:13;10.70;99.90
11894;DHT22;6006;49.696;8.662;2023-11-19T06:53:40;10.70;99.90
11894;DHT22;6006;49.696;8.662;2023-11-19T06:56:17;10.80;99.90
11894;DHT22;6006;49.696;8.662;2023-11-19T06:58:51;10.80;99.90
11894;DHT22;6006;49.696;8.662;2023-11-19T07:01:20;10.80;99.90
11894;DHT22;6006;49.696;8.662;2023-11-19T07:03:47;11.30;99.90
11894;DHT22;6006;49.696;8.662;2023-11-19T07:06:14;10.90;99.90
11894;DHT22;6006;49.696;8.662;2023-11-19T07:08:41;10.90;99.90
11894;DHT22;6006;49.696;8.662;2023-11-19T07:11:10;10.90;99.90
11894;DHT22;6006;49.696;8.662;2023-11-19T07:13:37;10.90;99.90
11894;DHT22;6006;49.696;8.662;2023-11-19T07:16:05;11.00;99.90
11894;DHT22;6006;49.696;8.662;2023-11-19T07:18:36;11.00;99.90
11894;DHT22;6006;49.696;8.662;2023-11-19T07:21:04;11.10;99.90
11894;DHT22;6006;49.696;8.662;2023-11-19T07:23:31;11.00;99.90
11894;DHT22;6006;49.696;8.662;2023-11-19T07:25:59;11.00;99.90
11894;DHT22;6006;49.696;8.662;2023-11-19T07:28:27;11.00;99.90
11894;DHT22;6006;49.696;8.662;2023-11-19T07:30:54;11.00;99.90
11894;DHT22;6006;49.696;8.662;2023-11-19T07:33:22;11.20;99.90
11894;DHT22;6006;49.696;8.662;2023-11-19T07:35:50;11.20;99.90
11894;DHT22;6006;49.696;8.662;2023-11-19T07:38:17;11.30;99.90
11894;DHT22;6006;49.696;8.662;2023-11-19T07:40:44;11.30;99.90
11894;DHT22;6006;49.696;8.662;2023-11-19T07:43:11;11.30;99.90
11894;DHT22;6006;49.696;8.662;2023-11-19T07:45:38;11.40;99.90
11894;DHT22;6006;49.696;8.662;2023-11-19T07:48:04;11.40;99.90
11894;DHT22;6006;49.696;8.662;2023-11-19T07:50:31;11.50;99.90
11894;DHT22;6006;49.696;8.662;2023-11-19T07:52:59;11.50;99.90
11894;DHT22;6006;49.696;8.662;2023-11-19T07:55:27;11.50;99.90
11894;DHT22;6006;49.696;8.662;2023-11-19T07:57:54;11.50;99.90
11894;DHT22;6006;49.696;8.662;2023-11-19T08:00:21;11.50;99.90
11894;DHT22;6006;49.696;8.662;2023-11-19T08:02:48;11.50;99.90
11894;DHT22;6006;49.696;8.662;2023-11-19T08:05:15;11.60;99.90
11894;DHT22;6006;49.696;8.662;2023-11-19T08:07:42;11.60;99.90
11894;DHT22;6006;49.696;8.662;2023-11-19T08:10:10;11.50;99.90
11894;DHT22;6006;49.696;8.662;2023-11-19T08:12:37;11.60;99.90
11894;DHT22;6006;49.696;8.662;2023-11-19T08:15:04;11.60;99.90
11894;DHT22;6006;49.696;8.662;2023-11-19T08:17:32;11.70;99.90
11894;DHT22;6006;49.696;8.662;2023-11-19T08:19:59;11.70;99.90
11894;DHT22;6006;49.696;8.662;2023-11-19T08:22:26;11.70;99.90
11894;DHT22;6006;49.696;8.662;2023-11-19T08:24:53;11.70;99.90
11894;DHT22;6006;49.696;8.662;2023-11-19T08:27:21;11.70;99.90
11894;DHT22;6006;49.696;8.662;2023-11-19T08:29:53;11.80;99.90
11894;DHT22;6006;49.696;8.662;2023-11-19T08:32:21;11.80;99.90
11894;DHT22;6006;49.696;8.662;2023-11-19T08:34:47;11.80;99.90
11894;DHT22;6006;49.696;8.662;2023-11-19T08:37:15;11.90;99.90
11894;DHT22;6006;49.696;8.662;2023-11-19T08:39:43;11.80;99.90
11894;DHT22;6006;49.696;8.662;2023-11-19T08:42:10;12.00;99.90
11894;DHT22;6006;49.696;8.662;2023-11-19T08:44:38;12.00;99.90
11894;DHT22;6006;49.696;8.662;2023-11-19T08:47:09;12.10;99.90
11894;DHT22;6006;49.696;8.662;2023-11-19T08:49:35;12.20;99.90
11894;DHT22;6006;49.696;8.662;2023-11-19T08:52:03;12.20;99.90
11894;DHT22;6006;49.696;8.662;2023-11-19T08:54:30;12.20;99.90
11894;DHT22;6006;49.696;8.662;2023-11-19T08:56:58;12.20;99.90
11894;DHT22;6006;49.696;8.662;2023-11-19T08:59:26;12.20;99.90
11894;DHT22;6006;49.696;8.662;2023-11-19T09:01:54;12.20;99.90
11894;DHT22;6006;49.696;8.662;2023-11-19T09:04:21;12.20;99.90
11894;DHT22;6006;49.696;8.662;2023-11-19T09:06:48;12.20;99.90
11894;DHT22;6006;49.696;8.662;2023-11-19T09:09:15;12.20;99.90
11894;DHT22;6006;49.696;8.662;2023-11-19T09:11:42;12.40;99.90
11894;DHT22;6006;49.696;8.662;2023-11-19T09:14:09;12.50;99.90
11894;DHT22;6006;49.696;8.662;2023-11-19T09:16:36;12.50;99.90
11894;DHT22;6006;49.696;8.662;2023-11-19T09:19:04;12.50;99.90
11894;DHT22;6006;49.696;8.662;2023-11-19T09:21:31;12.50;99.90
11894;DHT22;6006;49.696;8.662;2023-11-19T09:24:00;12.50;99.90
11894;DHT22;6006;49.696;8.662;2023-11-19T09:26:27;12.50;99.90
11894;DHT22;6006;49.696;8.662;2023-11-19T09:28:59;12.50;99.90
11894;DHT22;6006;49.696;8.662;2023-11-19T09:31:25;12.60;99.90
11894;DHT22;6006;49.696;8.662;2023-11-19T09:33:52;12.70;99.90
11894;DHT22;6006;49.696;8.662;2023-11-19T09:36:20;12.70;99.90
11894;DHT22;6006;49.696;8.662;2023-11-19T09:38:47;12.70;99.90
11894;DHT22;6006;49.696;8.662;2023-11-19T09:41:14;12.70;99.90
11894;DHT22;6006;49.696;8.662;2023-11-19T09:43:42;12.70;99.90
11894;DHT22;6006;49.696;8.662;2023-11-19T09:46:10;12.70;99.90
11894;DHT22;6006;49.696;8.662;2023-11-19T09:48:38;12.60;99.90
11894;DHT22;6006;49.696;8.662;2023-11-19T09:51:06;12.60;99.90
11894;DHT22;6006;49.696;8.662;2023-11-19T09:53:35;12.50;99.90
11894;DHT22;6006;49.696;8.662;2023-11-19T09:56:03;12.50;99.90
11894;DHT22;6006;49.696;8.662;2023-11-19T09:58:31;12.40;99.90
11894;DHT22;6006;49.696;8.662;2023-11-19T10:00:58;12.30;99.90
11894;DHT22;6006;49.696;8.662;2023-11-19T10:03:27;12.40;99.90
11894;DHT22;6006;49.696;8.662;2023-11-19T10:05:55;12.40;99.90
11894;DHT22;6006;49.696;8.662;2023-11-19T10:08:23;12.40;99.90
11894;DHT22;6006;49.696;8.662;2023-11-19T10:10:51;12.40;99.90
11894;DHT22;6006;49.696;8.662;2023-11-19T10:13:18;12.40;99.90
11894;DHT22;6006;49.696;8.662;2023-11-19T10:15:46;12.40;99.90
11894;DHT22;6006;49.696;8.662;2023-11-19T10:18:14;12.30;99.90
11894;DHT22;6006;49.696;8.662;2023-11-19T10:20:41;12.30;99.90
11894;DHT22;6006;49.696;8.662;2023-11-19T10:23:08;12.30;99.90
11894;DHT22;6006;49.696;8.662;2023-11-19T10:25:36;12.30;99.90
11894;DHT22;6006;49.696;8.662;2023-11-19T10:28:18;12.30;99.90
11894;DHT22;6006;49.696;8.662;2023-11-19T10:30:48;12.30;99.90
11894;DHT22;6006;49.696;8.662;2023-11-19T10:33:15;12.30;99.90
11894;DHT22;6006;49.696;8.662;2023-11-19T10:35:52;12.30;99.90
11894;DHT22;6006;49.696;8.662;2023-11-19T10:38:20;12.40;99.90
11894;DHT22;6006;49.696;8.662;2023-11-19T10:40:48;12.40;99.90
11894;DHT22;6006;49.696;8.662;2023-11-19T10:43:14;12.40;99.90
11894;DHT22;6006;49.696;8.662;2023-11-19T10:45:43;12.40;99.90
11894;DHT22;6006;49.696;8.662;2023-11-19T10:48:10;12.40;99.90
11894;DHT22;6006;49.696;8.662;2023-11-19T10:50:39;12.50;99.90
11894;DHT22;6006;49.696;8.662;2023-11-19T10:53:07;12.60;99.90
11894;DHT22;6006;49.696;8.662;2023-11-19T10:55:36;12.60;99.90
11894;DHT22;6006;49.696;8.662;2023-11-19T10:58:05;12.60;99.90
11894;DHT22;6006;49.696;8.662;2023-11-19T11:00:37;12.90;99.90
11894;DHT22;6006;49.696;8.662;2023-11-19T11:03:11;13.20;99.90
11894;DHT22;6006;49.696;8.662;2023-11-19T11:05:42;13.20;99.90
11894;DHT22;6006;49.696;8.662;2023-11-19T11:08:10;13.40;99.90
11894;DHT22;6006;49.696;8.662;2023-11-19T11:10:43;13.50;99.90
11894;DHT22;6006;49.696;8.662;2023-11-19T11:13:11;13.60;99.90
11894;DHT22;6006;49.696;8.662;2023-11-19T11:15:40;13.80;99.90
11894;DHT22;6006;49.696;8.662;2023-11-19T11:18:09;13.80;99.90
11894;DHT22;6006;49.696;8.662;2023-11-19T11:20:36;13.70;99.90
11894;DHT22;6006;49.696;8.662;2023-11-19T11:26:27;13.60;99.90
11894;DHT22;6006;49.696;8.662;2023-11-19T11:29:01;13.60;99.90
11894;DHT22;6006;49.696;8.662;2023-11-19T11:31:36;13.70;99.90
11894;DHT22;6006;49.696;8.662;2023-11-19T11:37:10;13.60;99.90
11894;DHT22;6006;49.696;8.662;2023-11-19T11:39:40;13.60;99.90
11894;DHT22;6006;49.696;8.662;2023-11-19T11:42:32;13.50;99.90
11894;DHT22;6006;49.696;8.662;2023-11-19T11:44:59;13.50;99.90
11894;DHT22;6006;49.696;8.662;2023-11-19T11:50:30;13.60;99.90
11894;DHT22;6006;49.696;8.662;2023-11-19T11:53:20;13.70;99.90
11894;DHT22;6006;49.696;8.662;2023-11-19T11:55:56;13.70;99.90
11894;DHT22;6006;49.696;8.662;2023-11-19T11:58:30;13.60;99.90
11894;DHT22;6006;49.696;8.662;2023-11-19T12:00:58;13.60;14.10
11894;DHT22;6006;49.696;8.662;2023-11-19T12:03:27;13.70;1.00
11894;DHT22;6006;49.696;8.662;2023-11-19T12:05:56;13.70;5.20
11894;DHT22;6006;49.696;8.662;2023-11-19T12:08:27;13.70;98.80
11894;DHT22;6006;49.696;8.662;2023-11-19T12:10:55;13.80;20.80
11894;DHT22;6006;49.696;8.662;2023-11-19T12:13:29;13.80;53.30
11894;DHT22;6006;49.696;8.662;2023-11-19T12:16:09;14.10;1.00
11894;DHT22;6006;49.696;8.662;2023-11-19T12:18:38;14.70;1.00
11894;DHT22;6006;49.696;8.662;2023-11-19T12:21:07;15.00;99.90
11894;DHT22;6006;49.696;8.662;2023-11-19T12:23:44;14.80;99.90
11894;DHT22;6006;49.696;8.662;2023-11-19T12:26:35;14.90;99.90
11894;DHT22;6006;49.696;8.662;2023-11-19T12:29:03;15.00;54.10
11894;DHT22;6006;49.696;8.662;2023-11-19T12:31:33;14.90;1.00
11894;DHT22;6006;49.696;8.662;2023-11-19T12:34:06;14.90;1.00
11894;DHT22;6006;49.696;8.662;2023-11-19T12:36:35;14.50;99.90
11894;DHT22;6006;49.696;8.662;2023-11-19T12:39:04;14.20;54.90
11894;DHT22;6006;49.696;8.662;2023-11-19T12:41:31;14.10;1.00
11894;DHT22;6006;49.696;8.662;2023-11-19T12:44:09;14.00;93.00
11894;DHT22;6006;49.696;8.662;2023-11-19T12:46:37;14.00;99.90
11894;DHT22;6006;49.696;8.662;2023-11-19T12:49:04;13.90;99.90
11894;DHT22;6006;49.696;8.662;2023-11-19T12:51:31;13.90;99.90
11894;DHT22;6006;49.696;8.662;2023-11-19T12:54:00;13.80;99.90
11894;DHT22;6006;49.696;8.662;2023-11-19T12:56:27;13.90;99.90
11894;DHT22;6006;49.696;8.662;2023-11-19T12:58:55;13.70;1.00
11894;DHT22;6006;49.696;8.662;2023-11-19T13:01:22;13.70;99.90
11894;DHT22;6006;49.696;8.662;2023-11-19T13:03:49;13.80;1.00
11894;DHT22;6006;49.696;8.662;2023-11-19T13:06:16;14.00;93.40
11894;DHT22;6006;49.696;8.662;2023-11-19T13:08:48;14.20;99.90
11894;DHT22;6006;49.696;8.662;2023-11-19T13:11:32;14.40;1.00
11894;DHT22;6006;49.696;8.662;2023-11-19T13:14:00;14.50;99.90
11894;DHT22;6006;49.696;8.662;2023-11-19T13:16:29;14.50;99.90
11894;DHT22;6006;49.696;8.662;2023-11-19T13:19:19;14.70;1.00
11894;DHT22;6006;49.696;8.662;2023-11-19T13:21:46;14.60;1.00
11894;DHT22;6006;49.696;8.662;2023-11-19T13:24:14;14.70;1.00
11894;DHT22;6006;49.696;8.662;2023-11-19T13:26:42;14.60;1.00
11894;DHT22;6006;49.696;8.662;2023-11-19T13:29:09;14.40;99.90
11894;DHT22;6006;49.696;8.662;2023-11-19T13:31:36;14.30;1.00
11894;DHT22;6006;49.696;8.662;2023-11-19T13:34:03;14.30;99.90
11894;DHT22;6006;49.696;8.662;2023-11-19T13:36:32;14.40;99.90
11894;DHT22;6006;49.696;8.662;2023-11-19T13:38:59;14.30;99.90
11894;DHT22;6006;49.696;8.662;2023-11-19T13:41:27;14.30;99.90
11894;DHT22;6006;49.696;8.662;2023-11-19T13:43:56;14.20;99.90
11894;DHT22;6006;49.696;8.662;2023-11-19T13:46:23;14.20;72.40
11894;DHT22;6006;49.696;8.662;2023-11-19T13:48:49;14.20;99.90
11894;DHT22;6006;49.696;8.662;2023-11-19T13:51:16;14.40;99.90
11894;DHT22;6006;49.696;8.662;2023-11-19T13:53:43;14.40;1.00
11894;DHT22;6006;49.696;8.662;2023-11-19T13:56:10;14.30;25.50
11894;DHT22;6006;49.696;8.662;2023-11-19T13:58:37;14.30;1.00
11894;DHT22;6006;49.696;8.662;2023-11-19T14:01:07;14.30;1.00
11894;DHT22;6006;49.696;8.662;2023-11-19T14:03:34;14.30;1.00
11894;DHT22;6006;49.696;8.662;2023-11-19T14:06:01;14.30;1.00
11894;DHT22;6006;49.696;8.662;2023-11-19T14:08:28;14.20;15.60
11894;DHT22;6006;49.696;8.662;2023-11-19T14:10:55;14.20;1.00
11894;DHT22;6006;49.696;8.662;2023-11-19T14:13:22;14.20;1.00
11894;DHT22;6006;49.696;8.662;2023-11-19T14:15:50;14.20;29.60
11894;DHT22;6006;49.696;8.662;2023-11-19T14:18:18;14.20;1.00
11894;DHT22;6006;49.696;8.662;2023-11-19T14:20:45;14.30;1.00
11894;DHT22;6006;49.696;8.662;2023-11-19T14:23:12;14.40;1.00
11894;DHT22;6006;49.696;8.662;2023-11-19T14:25:39;14.30;1.00
11894;DHT22;6006;49.696;8.662;2023-11-19T14:28:06;14.40;1.00
11894;DHT22;6006;49.696;8.662;2023-11-19T14:30:33;14.30;18.50
11894;DHT22;6006;49.696;8.662;2023-11-19T14:33:00;14.20;1.00
11894;DHT22;6006;49.696;8.662;2023-11-19T14:35:28;14.20;1.00
11894;DHT22;6006;49.696;8.662;2023-11-19T14:37:58;14.20;1.00
11894;DHT22;6006;49.696;8.662;2023-11-19T14:40:25;14.20;1.00
11894;DHT22;6006;49.696;8.662;2023-11-19T14:42:51;14.20;1.00
11894;DHT22;6006;49.696;8.662;2023-11-19T14:45:18;14.20;1.00
11894;DHT22;6006;49.696;8.662;2023-11-19T14:47:45;14.10;8.10
11894;DHT22;6006;49.696;8.662;2023-11-19T14:50:12;14.10;1.00
11894;DHT22;6006;49.696;8.662;2023-11-19T14:52:40;14.10;1.00
11894;DHT22;6006;49.696;8.662;2023-11-19T14:55:07;14.10;1.00
11894;DHT22;6006;49.696;8.662;2023-11-19T14:57:38;14.20;1.00
11894;DHT22;6006;49.696;8.662;2023-11-19T15:00:08;14.10;1.00
11894;DHT22;6006;49.696;8.662;2023-11-19T15:02:39;14.00;1.00
11894;DHT22;6006;49.696;8.662;2023-11-19T15:05:06;14.00;1.00
11894;DHT22;6006;49.696;8.662;2023-11-19T15:07:35;13.80;1.00
11894;DHT22;6006;49.696;8.662;2023-11-19T15:10:04;13.90;1.00
11894;DHT22;6006;49.696;8.662;2023-11-19T15:12:35;13.90;1.00
11894;DHT22;6006;49.696;8.662;2023-11-19T15:15:06;13.90;1.00
11894;DHT22;6006;49.696;8.662;2023-11-19T15:17:33;13.70;1.00
11894;DHT22;6006;49.696;8.662;2023-11-19T15:20:01;13.50;29.90
11894;DHT22;6006;49.696;8.662;2023-11-19T15:22:28;13.30;99.90
11894;DHT22;6006;49.696;8.662;2023-11-19T15:24:55;13.40;1.00
11894;DHT22;6006;49.696;8.662;2023-11-19T15:27:27;13.30;99.90
11894;DHT22;6006;49.696;8.662;2023-11-19T15:29:54;13.20;99.90
11894;DHT22;6006;49.696;8.662;2023-11-19T15:32:21;13.10;99.90
11894;DHT22;6006;49.696;8.662;2023-11-19T15:34:47;13.20;45.20
11894;DHT22;6006;49.696;8.662;2023-11-19T15:37:14;13.20;99.90
11894;DHT22;6006;49.696;8.662;2023-11-19T15:39:41;13.10;99.90
11894;DHT22;6006;49.696;8.662;2023-11-19T15:42:08;12.90;99.90
11894;DHT22;6006;49.696;8.662;2023-11-19T15:44:38;12.80;99.90
11894;DHT22;6006;49.696;8.662;2023-11-19T15:47:05;12.80;99.90
11894;DHT22;6006;49.696;8.662;2023-11-19T15:49:33;12.60;99.90
11894;DHT22;6006;49.696;8.662;2023-11-19T15:51:59;12.50;1.00
11894;DHT22;6006;49.696;8.662;2023-11-19T15:54:26;12.40;1.00
11894;DHT22;6006;49.696;8.662;2023-11-19T15:56:53;12.30;1.00
11894;DHT22;6006;49.696;8.662;2023-11-19T15:59:20;12.40;1.00
11894;DHT22;6006;49.696;8.662;2023-11-19T16:01:48;12.40;99.90
11894;DHT22;6006;49.696;8.662;2023-11-19T16:04:15;12.30;1.00
11894;DHT22;6006;49.696;8.662;2023-11-19T16:06:42;12.40;99.90
11894;DHT22;6006;49.696;8.662;2023-11-19T16:09:09;12.20;1.00